sensor_id;sensor_type;location;lat;lon;timestamp;pressure;altitude;pressure_sealevel;temperature;humidity
63493;BME280;49638;47.526;10.028;2023-02-07T00:02:52;92827.38;;;-5.66;80.40
63493;BME280;49638;47.526;10.028;2023-02-07T00:05:54;92829.53;;;-5.94;81.35
63493;BME280;49638;47.526;10.028;2023-02-07T00:08:58;92829.53;;;-5.94;83.22
63493;BME280;49638;47.526;10.028;2023-02-07T00:11:58;92840.00;;;-5.75;83.27
63493;BME280;49638;47.526;10.028;2023-02-07T00:14:58;92837.75;;;-5.68;82.32
63493;BME280;49638;47.526;10.028;2023-02-07T00:17:59;92839.78;;;-5.83;81.73
63493;BME280;49638;47.526;10.028;2023-02-07T00:21:01;92828.91;;;-5.86;82.08
63493;BME280;49638;47.526;10.028;2023-02-07T00:24:02;92829.53;;;-5.94;81.04
63493;BME280;49638;47.526;10.028;2023-02-07T00:27:03;92820.88;;;-5.93;81.39
63493;BME280;49638;47.526;10.028;2023-02-07T00:30:04;92823.84;;;-5.88;80.99
63493;BME280;49638;47.526;10.028;2023-02-07T00:33:04;92822.22;;;-5.89;80.47
63493;BME280;49638;47.526;10.028;2023-02-07T00:36:07;92825.88;;;-5.80;81.53
63493;BME280;49638;47.526;10.028;2023-02-07T00:39:12;92847.03;;;-5.65;81.18
63493;BME280;49638;47.526;10.028;2023-02-07T00:42:12;92833.44;;;-5.56;81.49
63493;BME280;49638;47.526;10.028;2023-02-07T00:45:13;92840.91;;;-5.42;81.60
63493;BME280;49638;47.526;10.028;2023-02-07T00:48:13;92841.25;;;-5.47;81.25
63493;BME280;49638;47.526;10.028;2023-02-07T00:51:13;92838.69;;;-5.47;81.80
63493;BME280;49638;47.526;10.028;2023-02-07T00:54:14;92839.25;;;-5.43;81.15
63493;BME280;49638;47.526;10.028;2023-02-07T00:57:14;92832.72;;;-5.58;80.45
63493;BME280;49638;47.526;10.028;2023-02-07T01:00:15;92817.97;;;-5.67;81.14
63493;BME280;49638;47.526;10.028;2023-02-07T01:03:16;92813.88;;;-5.59;81.95
63493;BME280;49638;47.526;10.028;2023-02-07T01:06:16;92810.34;;;-5.47;81.81
63493;BME280;49638;47.526;10.028;2023-02-07T01:09:17;92805.66;;;-5.41;81.46
63493;BME280;49638;47.526;10.028;2023-02-07T01:12:17;92797.72;;;-5.50;80.75
63493;BME280;49638;47.526;10.028;2023-02-07T01:15:18;92816.22;;;-5.56;80.15
63493;BME280;49638;47.526;10.028;2023-02-07T01:18:18;92814.50;;;-5.66;79.55
63493;BME280;49638;47.526;10.028;2023-02-07T01:21:22;92820.94;;;-5.83;80.43
63493;BME280;49638;47.526;10.028;2023-02-07T01:24:22;92813.25;;;-5.95;81.22
63493;BME280;49638;47.526;10.028;2023-02-07T01:27:23;92833.69;;;-5.82;80.97
63493;BME280;49638;47.526;10.028;2023-02-07T01:30:23;92833.25;;;-5.87;80.37
63493;BME280;49638;47.526;10.028;2023-02-07T01:33:24;92829.75;;;-5.97;80.70
63493;BME280;49638;47.526;10.028;2023-02-07T01:36:26;92833.16;;;-6.08;79.84
63493;BME280;49638;47.526;10.028;2023-02-07T01:39:27;92811.75;;;-6.20;81.00
63493;BME280;49638;47.526;10.028;2023-02-07T01:42:28;92804.25;;;-6.23;81.45
63493;BME280;49638;47.526;10.028;2023-02-07T01:45:36;92810.78;;;-6.19;80.42
63493;BME280;49638;47.526;10.028;2023-02-07T01:48:37;92802.41;;;-6.21;81.71
63493;BME280;49638;47.526;10.028;2023-02-07T01:51:41;92812.78;;;-6.22;81.28
63493;BME280;49638;47.526;10.028;2023-02-07T01:54:44;92811.97;;;-6.34;80.65
63493;BME280;49638;47.526;10.028;2023-02-07T01:57:46;92830.94;;;-6.35;80.92
63493;BME280;49638;47.526;10.028;2023-02-07T02:00:47;92828.34;;;-6.35;81.20
63493;BME280;49638;47.526;10.028;2023-02-07T02:03:50;92824.72;;;-6.32;81.71
63493;BME280;49638;47.526;10.028;2023-02-07T02:06:52;92824.13;;;-6.36;80.46
63493;BME280;49638;47.526;10.028;2023-02-07T02:09:53;92844.47;;;-6.55;78.89
63493;BME280;49638;47.526;10.028;2023-02-07T02:13:06;92837.41;;;-6.64;80.31
63493;BME280;49638;47.526;10.028;2023-02-07T02:16:21;92852.75;;;-6.52;82.27
63493;BME280;49638;47.526;10.028;2023-02-07T02:19:55;92868.91;;;-6.38;81.57
63493;BME280;49638;47.526;10.028;2023-02-07T02:45:18;92869.09;;;-6.53;84.51
63493;BME280;49638;47.526;10.028;2023-02-07T02:48:20;92863.16;;;-6.42;84.76
63493;BME280;49638;47.526;10.028;2023-02-07T02:51:22;92840.00;;;-6.42;84.07
63493;BME280;49638;47.526;10.028;2023-02-07T02:54:34;92850.34;;;-6.31;84.01
63493;BME280;49638;47.526;10.028;2023-02-07T02:57:52;92843.88;;;-6.25;84.14
63493;BME280;49638;47.526;10.028;2023-02-07T03:01:05;92855.94;;;-6.26;81.92
63493;BME280;49638;47.526;10.028;2023-02-07T03:04:21;92860.13;;;-6.47;80.39
63493;BME280;49638;47.526;10.028;2023-02-07T03:11:08;92872.97;;;-6.58;81.94
63493;BME280;49638;47.526;10.028;2023-02-07T03:14:30;92876.81;;;-6.53;82.63
63493;BME280;49638;47.526;10.028;2023-02-07T03:17:46;92875.31;;;-6.55;82.60
63493;BME280;49638;47.526;10.028;2023-02-07T03:24:31;92868.78;;;-6.83;80.11
63493;BME280;49638;47.526;10.028;2023-02-07T03:27:33;92883.34;;;-6.95;82.52
63493;BME280;49638;47.526;10.028;2023-02-07T03:30:34;92893.19;;;-6.89;82.86
63493;BME280;49638;47.526;10.028;2023-02-07T03:33:38;92899.41;;;-6.80;83.10
63493;BME280;49638;47.526;10.028;2023-02-07T03:36:45;92915.16;;;-6.85;81.15
63493;BME280;49638;47.526;10.028;2023-02-07T03:39:49;92918.13;;;-7.02;82.29
63493;BME280;49638;47.526;10.028;2023-02-07T03:43:15;92922.28;;;-7.12;81.20
63493;BME280;49638;47.526;10.028;2023-02-07T03:46:17;92935.44;;;-7.17;82.30
63493;BME280;49638;47.526;10.028;2023-02-07T03:49:17;92934.41;;;-7.15;84.00
63493;BME280;49638;47.526;10.028;2023-02-07T03:52:18;92933.47;;;-7.14;83.88
63493;BME280;49638;47.526;10.028;2023-02-07T03:55:18;92939.19;;;-7.10;84.36
63493;BME280;49638;47.526;10.028;2023-02-07T03:58:19;92929.06;;;-7.11;84.68
63493;BME280;49638;47.526;10.028;2023-02-07T04:01:19;92909.56;;;-7.27;83.78
63493;BME280;49638;47.526;10.028;2023-02-07T04:04:19;92928.03;;;-7.09;85.15
63493;BME280;49638;47.526;10.028;2023-02-07T04:07:19;92925.31;;;-7.07;84.25
63493;BME280;49638;47.526;10.028;2023-02-07T04:10:20;92926.81;;;-7.16;83.97
63493;BME280;49638;47.526;10.028;2023-02-07T04:13:20;92914.88;;;-7.17;83.73
63493;BME280;49638;47.526;10.028;2023-02-07T04:16:20;92935.44;;;-7.17;83.15
63493;BME280;49638;47.526;10.028;2023-02-07T04:19:21;92952.31;;;-7.26;82.94
63493;BME280;49638;47.526;10.028;2023-02-07T04:22:21;92956.44;;;-7.23;83.82
63493;BME280;49638;47.526;10.028;2023-02-07T04:25:21;92944.63;;;-7.26;83.72
63493;BME280;49638;47.526;10.028;2023-02-07T04:28:21;92956.84;;;-7.29;83.32
63493;BME280;49638;47.526;10.028;2023-02-07T04:31:22;92955.53;;;-7.48;83.00
63493;BME280;49638;47.526;10.028;2023-02-07T04:34:22;92948.16;;;-7.52;85.76
63493;BME280;49638;47.526;10.028;2023-02-07T04:37:22;92947.44;;;-7.54;84.78
63493;BME280;49638;47.526;10.028;2023-02-07T04:40:22;92940.47;;;-7.52;85.14
63493;BME280;49638;47.526;10.028;2023-02-07T04:43:23;92939.72;;;-7.42;86.11
63493;BME280;49638;47.526;10.028;2023-02-07T04:46:23;92945.16;;;-7.33;84.73
63493;BME280;49638;47.526;10.028;2023-02-07T04:49:23;92931.94;;;-7.40;85.31
63493;BME280;49638;47.526;10.028;2023-02-07T04:52:24;92952.69;;;-7.06;85.94
63493;BME280;49638;47.526;10.028;2023-02-07T04:55:24;92952.91;;;-7.09;84.33
63493;BME280;49638;47.526;10.028;2023-02-07T04:58:24;92957.56;;;-7.03;84.66
63493;BME280;49638;47.526;10.028;2023-02-07T05:01:24;92959.47;;;-7.18;81.79
63493;BME280;49638;47.526;10.028;2023-02-07T05:04:25;92951.31;;;-7.36;83.27
63493;BME280;49638;47.526;10.028;2023-02-07T05:07:25;92938.31;;;-7.46;84.03
63493;BME280;49638;47.526;10.028;2023-02-07T05:10:25;92956.25;;;-7.33;84.13
63493;BME280;49638;47.526;10.028;2023-02-07T05:13:26;92945.53;;;-7.27;83.56
63493;BME280;49638;47.526;10.028;2023-02-07T05:16:26;92946.03;;;-7.22;82.94
63493;BME280;49638;47.526;10.028;2023-02-07T05:19:26;92934.03;;;-7.34;82.24
63493;BME280;49638;47.526;10.028;2023-02-07T05:22:26;92937.13;;;-7.29;82.44
63493;BME280;49638;47.526;10.028;2023-02-07T05:25:27;92937.13;;;-7.29;83.06
63493;BME280;49638;47.526;10.028;2023-02-07T05:28:27;92935.50;;;-7.30;82.54
63493;BME280;49638;47.526;10.028;2023-02-07T05:31:27;92932.00;;;-7.42;82.23
63493;BME280;49638;47.526;10.028;2023-02-07T05:34:46;92947.81;;;-7.35;83.23
63493;BME280;49638;47.526;10.028;2023-02-07T05:37:47;92949.66;;;-7.37;82.66
63493;BME280;49638;47.526;10.028;2023-02-07T05:40:47;92966.94;;;-7.39;81.46
63493;BME280;49638;47.526;10.028;2023-02-07T05:43:48;92972.63;;;-7.47;81.00
63493;BME280;49638;47.526;10.028;2023-02-07T05:46:49;92988.53;;;-7.54;81.95
63493;BME280;49638;47.526;10.028;2023-02-07T05:49:49;92996.94;;;-7.52;83.00
63493;BME280;49638;47.526;10.028;2023-02-07T05:52:49;92972.09;;;-7.52;81.30
63493;BME280;49638;47.526;10.028;2023-02-07T05:55:50;92968.03;;;-7.80;79.99
63493;BME280;49638;47.526;10.028;2023-02-07T05:58:51;92993.47;;;-7.90;81.29
63493;BME280;49638;47.526;10.028;2023-02-07T06:01:52;92981.25;;;-7.86;82.11
63493;BME280;49638;47.526;10.028;2023-02-07T06:04:53;92986.91;;;-7.94;81.80
63493;BME280;49638;47.526;10.028;2023-02-07T06:07:53;92998.50;;;-8.14;84.01
63493;BME280;49638;47.526;10.028;2023-02-07T06:10:53;92987.22;;;-8.11;87.98
63493;BME280;49638;47.526;10.028;2023-02-07T06:13:53;92994.50;;;-7.92;87.89
63493;BME280;49638;47.526;10.028;2023-02-07T06:16:54;92999.03;;;-7.83;85.11
63493;BME280;49638;47.526;10.028;2023-02-07T06:19:54;92991.94;;;-7.79;84.43
63493;BME280;49638;47.526;10.028;2023-02-07T06:22:54;92985.06;;;-7.79;83.26
63493;BME280;49638;47.526;10.028;2023-02-07T06:25:54;92979.09;;;-7.92;82.61
63493;BME280;49638;47.526;10.028;2023-02-07T06:28:55;92991.31;;;-7.83;83.03
63493;BME280;49638;47.526;10.028;2023-02-07T06:31:55;92993.47;;;-7.90;80.96
63493;BME280;49638;47.526;10.028;2023-02-07T06:34:55;92975.31;;;-7.99;81.83
63493;BME280;49638;47.526;10.028;2023-02-07T06:37:56;92963.63;;;-8.03;81.87
63493;BME280;49638;47.526;10.028;2023-02-07T06:40:56;92977.06;;;-8.00;83.22
63493;BME280;49638;47.526;10.028;2023-02-07T06:43:56;92976.88;;;-7.84;84.97
63493;BME280;49638;47.526;10.028;2023-02-07T06:46:56;92962.91;;;-7.80;84.00
63493;BME280;49638;47.526;10.028;2023-02-07T06:49:56;92980.34;;;-7.72;83.03
63493;BME280;49638;47.526;10.028;2023-02-07T06:52:57;92979.84;;;-7.77;82.04
63493;BME280;49638;47.526;10.028;2023-02-07T06:56:01;92978.19;;;-7.91;82.15
63493;BME280;49638;47.526;10.028;2023-02-07T06:59:02;92983.09;;;-7.75;83.10
63493;BME280;49638;47.526;10.028;2023-02-07T07:02:02;92978.28;;;-7.67;83.09
63493;BME280;49638;47.526;10.028;2023-02-07T07:05:03;92973.97;;;-7.67;81.95
63493;BME280;49638;47.526;10.028;2023-02-07T07:08:03;92980.34;;;-7.85;79.92
63493;BME280;49638;47.526;10.028;2023-02-07T07:11:03;92983.63;;;-7.83;81.33
63493;BME280;49638;47.526;10.028;2023-02-07T07:14:04;92997.19;;;-7.94;80.42
63493;BME280;49638;47.526;10.028;2023-02-07T07:17:04;93008.75;;;-7.88;82.35
63493;BME280;49638;47.526;10.028;2023-02-07T07:20:05;92998.09;;;-7.82;83.29
63493;BME280;49638;47.526;10.028;2023-02-07T07:23:06;93021.00;;;-7.66;82.74
63493;BME280;49638;47.526;10.028;2023-02-07T07:26:07;93030.66;;;-7.70;82.08
63493;BME280;49638;47.526;10.028;2023-02-07T07:29:07;93033.72;;;-7.77;82.03
63493;BME280;49638;47.526;10.028;2023-02-07T07:32:07;93027.97;;;-7.81;82.62
63493;BME280;49638;47.526;10.028;2023-02-07T07:35:10;93020.69;;;-7.87;83.55
63493;BME280;49638;47.526;10.028;2023-02-07T07:38:11;93032.19;;;-7.80;84.01
63493;BME280;49638;47.526;10.028;2023-02-07T07:41:11;93035.03;;;-7.72;84.95
63493;BME280;49638;47.526;10.028;2023-02-07T07:44:12;93037.22;;;-7.66;84.80
63493;BME280;49638;47.526;10.028;2023-02-07T07:47:12;93027.56;;;-7.62;84.14
63493;BME280;49638;47.526;10.028;2023-02-07T07:50:13;93006.59;;;-7.56;84.60
63493;BME280;49638;47.526;10.028;2023-02-07T07:53:14;93019.31;;;-7.29;84.75
63493;BME280;49638;47.526;10.028;2023-02-07T07:56:14;92996.47;;;-7.21;85.18
63493;BME280;49638;47.526;10.028;2023-02-07T07:59:15;93005.38;;;-7.01;84.93
63493;BME280;49638;47.526;10.028;2023-02-07T08:02:16;93002.66;;;-6.86;84.42
63493;BME280;49638;47.526;10.028;2023-02-07T08:05:16;92986.53;;;-6.88;84.62
63493;BME280;49638;47.526;10.028;2023-02-07T08:08:17;92997.75;;;-6.65;83.78
63493;BME280;49638;47.526;10.028;2023-02-07T08:11:18;92987.78;;;-6.70;82.50
63493;BME280;49638;47.526;10.028;2023-02-07T08:14:19;93003.13;;;-6.69;82.96
63493;BME280;49638;47.526;10.028;2023-02-07T08:17:19;93004.09;;;-6.58;83.60
63493;BME280;49638;47.526;10.028;2023-02-07T08:20:19;92994.09;;;-6.39;83.84
63493;BME280;49638;47.526;10.028;2023-02-07T08:23:20;93007.63;;;-6.24;83.60
63493;BME280;49638;47.526;10.028;2023-02-07T08:26:20;92994.84;;;-6.26;83.07
63493;BME280;49638;47.526;10.028;2023-02-07T08:29:21;92993.59;;;-6.20;82.29
63493;BME280;49638;47.526;10.028;2023-02-07T08:32:21;93003.88;;;-6.20;82.12
63493;BME280;49638;47.526;10.028;2023-02-07T08:35:22;93003.88;;;-6.20;81.75
63493;BME280;49638;47.526;10.028;2023-02-07T08:38:22;93001.41;;;-6.22;82.12
63493;BME280;49638;47.526;10.028;2023-02-07T08:41:23;93020.66;;;-6.14;82.32
63493;BME280;49638;47.526;10.028;2023-02-07T08:44:23;93025.09;;;-6.05;82.71
63493;BME280;49638;47.526;10.028;2023-02-07T08:47:23;93029.47;;;-5.95;82.55
63493;BME280;49638;47.526;10.028;2023-02-07T08:50:24;93028.28;;;-5.90;82.40
63493;BME280;49638;47.526;10.028;2023-02-07T08:53:24;93024.56;;;-5.98;82.83
63493;BME280;49638;47.526;10.028;2023-02-07T08:56:24;93031.91;;;-5.82;82.96
63493;BME280;49638;47.526;10.028;2023-02-07T08:59:24;93018.94;;;-5.80;82.41
63493;BME280;49638;47.526;10.028;2023-02-07T09:02:26;93038.75;;;-5.69;82.35
63493;BME280;49638;47.526;10.028;2023-02-07T09:05:26;93037.59;;;-5.65;82.64
63493;BME280;49638;47.526;10.028;2023-02-07T09:08:27;93036.63;;;-5.64;82.55
63493;BME280;49638;47.526;10.028;2023-02-07T09:11:27;93023.31;;;-5.58;82.84
63493;BME280;49638;47.526;10.028;2023-02-07T09:14:27;93006.09;;;-5.58;83.37
63493;BME280;49638;47.526;10.028;2023-02-07T09:17:27;92990.63;;;-5.58;83.04
63493;BME280;49638;47.526;10.028;2023-02-07T09:20:28;93009.75;;;-5.38;82.83
63493;BME280;49638;47.526;10.028;2023-02-07T09:23:28;93030.84;;;-5.21;82.95
63493;BME280;49638;47.526;10.028;2023-02-07T09:26:28;93045.47;;;-5.00;82.87
63493;BME280;49638;47.526;10.028;2023-02-07T09:29:32;93042.09;;;-4.89;82.85
63493;BME280;49638;47.526;10.028;2023-02-07T09:32:32;93044.16;;;-4.83;81.89
63493;BME280;49638;47.526;10.028;2023-02-07T09:35:37;93024.47;;;-4.84;81.81
63493;BME280;49638;47.526;10.028;2023-02-07T09:38:37;93036.44;;;-4.71;82.15
63493;BME280;49638;47.526;10.028;2023-02-07T09:42:04;93034.78;;;-4.61;81.85
63493;BME280;49638;47.526;10.028;2023-02-07T09:45:11;93034.75;;;-4.50;81.71
63493;BME280;49638;47.526;10.028;2023-02-07T09:48:16;93036.59;;;-4.41;81.61
63493;BME280;49638;47.526;10.028;2023-02-07T09:51:20;93041.16;;;-4.33;81.73
63493;BME280;49638;47.526;10.028;2023-02-07T09:54:27;93039.53;;;-4.34;80.77
63493;BME280;49638;47.526;10.028;2023-02-07T09:57:45;93033.53;;;-4.35;81.40
63493;BME280;49638;47.526;10.028;2023-02-07T10:00:57;93031.41;;;-4.30;81.18
63493;BME280;49638;47.526;10.028;2023-02-07T10:07:18;93049.09;;;-3.93;81.30
63493;BME280;49638;47.526;10.028;2023-02-07T10:11:12;93038.72;;;-3.82;80.29
63493;BME280;49638;47.526;10.028;2023-02-07T10:14:09;93034.81;;;-3.76;79.54
63493;BME280;49638;47.526;10.028;2023-02-07T10:27:31;93050.69;;;-3.39;79.87
63493;BME280;49638;47.526;10.028;2023-02-07T10:30:35;93060.91;;;-3.37;80.54
63493;BME280;49638;47.526;10.028;2023-02-07T10:33:48;93058.06;;;-3.34;77.75
63493;BME280;49638;47.526;10.028;2023-02-07T10:36:52;93060.00;;;-3.26;80.20
63493;BME280;49638;47.526;10.028;2023-02-07T10:40:05;93054.47;;;-3.22;79.44
63493;BME280;49638;47.526;10.028;2023-02-07T10:43:23;93060.50;;;-3.12;79.14
63493;BME280;49638;47.526;10.028;2023-02-07T10:46:25;93059.34;;;-2.98;79.73
63493;BME280;49638;47.526;10.028;2023-02-07T10:49:32;93062.81;;;-2.88;79.20
63493;BME280;49638;47.526;10.028;2023-02-07T10:52:36;93061.06;;;-2.77;79.08
63493;BME280;49638;47.526;10.028;2023-02-07T10:55:41;93063.53;;;-2.76;79.23
63493;BME280;49638;47.526;10.028;2023-02-07T10:58:43;93061.47;;;-2.72;79.52
63493;BME280;49638;47.526;10.028;2023-02-07T11:01:51;93066.59;;;-2.61;78.77
63493;BME280;49638;47.526;10.028;2023-02-07T11:04:52;93067.69;;;-2.54;78.93
63493;BME280;49638;47.526;10.028;2023-02-07T11:08:01;93071.38;;;-2.47;78.67
63493;BME280;49638;47.526;10.028;2023-02-07T11:14:25;93072.63;;;-2.31;78.82
63493;BME280;49638;47.526;10.028;2023-02-07T11:17:27;93067.19;;;-2.28;78.94
63493;BME280;49638;47.526;10.028;2023-02-07T11:20:37;93069.53;;;-2.25;78.33
63493;BME280;49638;47.526;10.028;2023-02-07T11:23:42;93070.59;;;-2.28;78.11
63493;BME280;49638;47.526;10.028;2023-02-07T11:27:06;93078.00;;;-2.23;75.69
63493;BME280;49638;47.526;10.028;2023-02-07T11:30:17;93079.88;;;-2.25;77.84
63493;BME280;49638;47.526;10.028;2023-02-07T11:33:20;93066.94;;;-2.25;77.94
63493;BME280;49638;47.526;10.028;2023-02-07T11:36:29;93079.66;;;-2.12;77.37
63493;BME280;49638;47.526;10.028;2023-02-07T11:39:30;93073.38;;;-2.10;78.41
63493;BME280;49638;47.526;10.028;2023-02-07T11:42:31;93068.47;;;-2.13;78.54
63493;BME280;49638;47.526;10.028;2023-02-07T11:45:32;93071.72;;;-2.11;78.57
63493;BME280;49638;47.526;10.028;2023-02-07T11:48:37;93069.03;;;-2.09;78.64
63493;BME280;49638;47.526;10.028;2023-02-07T11:51:39;93071.47;;;-2.08;78.79
63493;BME280;49638;47.526;10.028;2023-02-07T11:54:40;93057.72;;;-1.99;78.67
63493;BME280;49638;47.526;10.028;2023-02-07T11:57:44;93052.69;;;-2.00;77.31
63493;BME280;49638;47.526;10.028;2023-02-07T12:00:45;93054.84;;;-1.96;77.49
63493;BME280;49638;47.526;10.028;2023-02-07T12:03:58;93057.84;;;-1.91;76.00
63493;BME280;49638;47.526;10.028;2023-02-07T12:07:22;93054.97;;;-1.87;74.42
63493;BME280;49638;47.526;10.028;2023-02-07T12:10:32;93053.47;;;-1.80;76.70
63493;BME280;49638;47.526;10.028;2023-02-07T12:13:39;93068.22;;;-1.71;76.52
63493;BME280;49638;47.526;10.028;2023-02-07T12:16:49;93053.22;;;-1.77;76.61
63493;BME280;49638;47.526;10.028;2023-02-07T12:19:54;93067.13;;;-1.69;77.52
63493;BME280;49638;47.526;10.028;2023-02-07T12:23:07;93056.34;;;-1.74;76.47
63493;BME280;49638;47.526;10.028;2023-02-07T12:26:46;93061.97;;;-1.69;77.95
63493;BME280;49638;47.526;10.028;2023-02-07T12:33:12;93056.63;;;-1.57;76.73
63493;BME280;49638;47.526;10.028;2023-02-07T12:36:20;93051.03;;;-1.53;76.60
63493;BME280;49638;47.526;10.028;2023-02-07T12:39:28;93047.50;;;-1.52;77.57
63493;BME280;49638;47.526;10.028;2023-02-07T12:42:39;93050.34;;;-1.45;76.85
63493;BME280;49638;47.526;10.028;2023-02-07T12:52:53;93045.81;;;-1.33;73.96
63493;BME280;49638;47.526;10.028;2023-02-07T12:59:23;93047.75;;;-1.35;76.07
63493;BME280;49638;47.526;10.028;2023-02-07T13:02:47;93054.13;;;-1.39;75.03
63493;BME280;49638;47.526;10.028;2023-02-07T13:06:09;93049.91;;;-1.40;76.89
63493;BME280;49638;47.526;10.028;2023-02-07T13:09:23;93049.81;;;-1.39;77.06
63493;BME280;49638;47.526;10.028;2023-02-07T13:15:52;93054.69;;;-1.36;76.67
63493;BME280;49638;47.526;10.028;2023-02-07T13:22:35;93041.31;;;-1.31;77.78
63493;BME280;49638;47.526;10.028;2023-02-07T13:25:41;93043.91;;;-1.31;77.51
63493;BME280;49638;47.526;10.028;2023-02-07T13:28:50;93034.50;;;-1.42;77.48
63493;BME280;49638;47.526;10.028;2023-02-07T13:31:55;93041.47;;;-1.42;77.92
63493;BME280;49638;47.526;10.028;2023-02-07T13:35:06;93046.78;;;-1.44;76.55
63493;BME280;49638;47.526;10.028;2023-02-07T13:38:21;93038.63;;;-1.59;75.21
63493;BME280;49638;47.526;10.028;2023-02-07T13:44:43;93032.75;;;-1.71;76.39
63493;BME280;49638;47.526;10.028;2023-02-07T13:47:56;93033.88;;;-1.83;76.50
63493;BME280;49638;47.526;10.028;2023-02-07T13:57:43;93042.31;;;-2.10;76.25
63493;BME280;49638;47.526;10.028;2023-02-07T14:01:23;93049.78;;;-2.17;76.78
63493;BME280;49638;47.526;10.028;2023-02-07T14:04:23;93045.81;;;-2.30;78.33
63493;BME280;49638;47.526;10.028;2023-02-07T14:07:27;93050.03;;;-2.29;79.08
63493;BME280;49638;47.526;10.028;2023-02-07T14:13:40;93051.00;;;-2.30;79.12
63493;BME280;49638;47.526;10.028;2023-02-07T14:16:47;93051.00;;;-2.30;79.15
63493;BME280;49638;47.526;10.028;2023-02-07T14:19:49;93048.53;;;-2.32;79.56
63493;BME280;49638;47.526;10.028;2023-02-07T14:25:50;93046.16;;;-2.45;79.81
63493;BME280;49638;47.526;10.028;2023-02-07T14:28:51;93057.53;;;-2.36;79.91
63493;BME280;49638;47.526;10.028;2023-02-07T14:38:28;93054.63;;;-2.43;79.60
63493;BME280;49638;47.526;10.028;2023-02-07T14:41:31;93049.19;;;-2.40;80.13
63493;BME280;49638;47.526;10.028;2023-02-07T14:44:34;93056.69;;;-2.36;79.42
63493;BME280;49638;47.526;10.028;2023-02-07T14:47:35;93064.28;;;-2.45;79.62
63493;BME280;49638;47.526;10.028;2023-02-07T14:50:37;93050.41;;;-2.44;80.16
63493;BME280;49638;47.526;10.028;2023-02-07T14:53:39;93046.09;;;-2.33;80.02
63493;BME280;49638;47.526;10.028;2023-02-07T14:57:01;93047.94;;;-2.45;78.74
63493;BME280;49638;47.526;10.028;2023-02-07T15:03:13;93056.69;;;-2.46;80.17
63493;BME280;49638;47.526;10.028;2023-02-07T15:06:19;93059.50;;;-2.59;79.66
63493;BME280;49638;47.526;10.028;2023-02-07T15:09:25;93066.44;;;-2.59;80.40
63493;BME280;49638;47.526;10.028;2023-02-07T15:12:26;93066.19;;;-2.56;80.75
63493;BME280;49638;47.526;10.028;2023-02-07T15:15:40;93066.44;;;-2.59;80.19
63493;BME280;49638;47.526;10.028;2023-02-07T15:18:46;93058.56;;;-2.58;81.29
63493;BME280;49638;47.526;10.028;2023-02-07T15:21:47;93062.00;;;-2.48;80.79
63493;BME280;49638;47.526;10.028;2023-02-07T15:24:50;93063.88;;;-2.50;80.78
63493;BME280;49638;47.526;10.028;2023-02-07T15:28:02;93064.84;;;-2.51;80.60
63493;BME280;49638;47.526;10.028;2023-02-07T15:31:05;93070.41;;;-2.55;80.70
63493;BME280;49638;47.526;10.028;2023-02-07T15:34:13;93068.06;;;-2.68;80.44
63493;BME280;49638;47.526;10.028;2023-02-07T15:37:22;93071.56;;;-2.69;80.31
63493;BME280;49638;47.526;10.028;2023-02-07T15:40:25;93085.59;;;-2.72;80.54
63493;BME280;49638;47.526;10.028;2023-02-07T15:43:31;93078.41;;;-2.68;79.90
63493;BME280;49638;47.526;10.028;2023-02-07T15:46:54;93073.25;;;-2.58;78.78
63493;BME280;49638;47.526;10.028;2023-02-07T15:49:59;93073.28;;;-2.49;79.57
63493;BME280;49638;47.526;10.028;2023-02-07T15:53:02;93069.75;;;-2.48;79.27
63493;BME280;49638;47.526;10.028;2023-02-07T15:56:04;93068.41;;;-2.42;79.05
63493;BME280;49638;47.526;10.028;2023-02-07T15:59:09;93076.47;;;-2.35;78.69
63493;BME280;49638;47.526;10.028;2023-02-07T16:02:28;93097.34;;;-2.27;78.32
63493;BME280;49638;47.526;10.028;2023-02-07T16:05:37;93090.50;;;-2.28;78.92
63493;BME280;49638;47.526;10.028;2023-02-07T16:08:40;93096.78;;;-2.21;79.45
63493;BME280;49638;47.526;10.028;2023-02-07T16:11:40;93100.06;;;-2.19;79.27
63493;BME280;49638;47.526;10.028;2023-02-07T16:14:41;93093.28;;;-2.20;79.65
63493;BME280;49638;47.526;10.028;2023-02-07T16:17:41;93097.06;;;-2.24;79.47
63493;BME280;49638;47.526;10.028;2023-02-07T16:20:42;93098.41;;;-2.30;79.40
63493;BME280;49638;47.526;10.028;2023-02-07T16:23:43;93089.94;;;-2.32;79.46
63493;BME280;49638;47.526;10.028;2023-02-07T16:26:44;93083.13;;;-2.43;79.47
63493;BME280;49638;47.526;10.028;2023-02-07T16:29:46;93099.63;;;-2.34;79.82
63493;BME280;49638;47.526;10.028;2023-02-07T16:32:46;93096.19;;;-2.44;79.47
63493;BME280;49638;47.526;10.028;2023-02-07T16:35:46;93098.66;;;-2.43;79.97
63493;BME280;49638;47.526;10.028;2023-02-07T16:38:47;93101.94;;;-2.41;80.06
63493;BME280;49638;47.526;10.028;2023-02-07T16:41:50;93100.69;;;-2.46;79.86
63493;BME280;49638;47.526;10.028;2023-02-07T16:44:51;93104.22;;;-2.47;79.19
63493;BME280;49638;47.526;10.028;2023-02-07T16:47:52;93092.50;;;-2.51;80.02
63493;BME280;49638;47.526;10.028;2023-02-07T16:50:53;93109.53;;;-2.49;79.66
63493;BME280;49638;47.526;10.028;2023-02-07T16:53:53;93116.34;;;-2.48;80.12
63493;BME280;49638;47.526;10.028;2023-02-07T16:56:56;93107.75;;;-2.48;80.10
63493;BME280;49638;47.526;10.028;2023-02-07T16:59:57;93110.34;;;-2.48;79.60
63493;BME280;49638;47.526;10.028;2023-02-07T17:02:57;93111.19;;;-2.48;79.92
63493;BME280;49638;47.526;10.028;2023-02-07T17:05:57;93108.16;;;-2.53;79.92
63493;BME280;49638;47.526;10.028;2023-02-07T17:08:58;93103.22;;;-2.56;80.07
63493;BME280;49638;47.526;10.028;2023-02-07T17:11:58;93085.88;;;-2.65;80.28
63493;BME280;49638;47.526;10.028;2023-02-07T17:14:58;93102.28;;;-2.55;80.08
63493;BME280;49638;47.526;10.028;2023-02-07T17:17:58;93089.88;;;-2.61;80.07
63493;BME280;49638;47.526;10.028;2023-02-07T17:20:59;93098.75;;;-2.54;80.02
63493;BME280;49638;47.526;10.028;2023-02-07T17:23:59;93104.84;;;-2.55;79.87
63493;BME280;49638;47.526;10.028;2023-02-07T17:26:59;93099.97;;;-2.58;80.00
63493;BME280;49638;47.526;10.028;2023-02-07T17:29:59;93095.47;;;-2.56;80.21
63493;BME280;49638;47.526;10.028;2023-02-07T17:33:00;93097.94;;;-2.54;80.16
63493;BME280;49638;47.526;10.028;2023-02-07T17:36:00;93074.97;;;-2.69;79.85